Lafayette, AL

6:24 PM CDT on May 27, 2015 (GMT -0500)
Russell | | Change Station
CLOSE
Current Station
Airport
Location: Alexander City,
Elevation: 686 ft
Nearby Weather Stations

Elev 686 ft 32.91 °N, 85.96 °W | Updated 9 minutes ago

Partly Cloudy
Partly Cloudy
75 °F
Feels Like 75 °F
N
21
Wind Variable Wind from SW
Gusts 32 mph

Today
High -- | Low -- °F
--% Chance of Precip.
Yesterday
High -- | Low -- °F
Precip. -- in
5:36 AM 7:42 PM
Waxing Gibbous, 71% visible
Pressure 30.18 in
Visibility 10.0 miles
Clouds Scattered Clouds 3100 ft
Mostly Cloudy 3700 ft
Dew Point 63 °F
Humidity 66%
Rainfall 0.00 in
Snow Depth Not available.
UV 1 out of 12
Pollen .70 out of 12
Air Quality Not available.
Flu Activity Sporadic
METAR KALX 272315Z AUTO 22018G28KT 10SM TS SCT031 BKN037 24/17 A3018 RMK AO2 LTG DSNT ALQS T02390171

More Conditions Fewer Conditions

Pressure 30.18 in
Visibility 10.0 miles
Clouds Scattered Clouds 3100 ft
Mostly Cloudy 3700 ft
Dew Point 63 °F
Humidity 66%
Rainfall 0.00 in
Snow Depth Not available.
UV 1 out of 12
Pollen .70 out of 12
Air Quality Not available.
Flu Activity Sporadic
METAR KALX 272315Z AUTO 22018G28KT 10SM TS SCT031 BKN037 24/17 A3018 RMK AO2 LTG DSNT ALQS T02390171

More Conditions Fewer Conditions

10-Day Weather Forecast

Almanac

Astronomy

May. 27, 2015 Rise Set
Actual Time
Civil Twilight
Nautical Twilight
Astronomical Twilight
Moon
Length of Visible Light
Length of Day
Tomorrow will be .
, % of the Moon is Illuminated

Today's Extremes

State Highs State Lows

Community

WunderPhotos

Upload Photos

1,824,818 photos uploaded!

WunderBlogs® & News

Nearby

Air Quality

  Air Quality AQ Index Pollutant
Not available.

Snow Depth

Station Depth Elevation

Earthquake Activity

City Distance Mag. Time & Date
Minimum magnitude displayed is 2.5.

Coastal Water Temperatures

Place Temperature

Stations

Nearby Weather Stations

Station Location Temp. Windchill Dew Point Humidity Wind Precip. Elev Updated Type